Time;durP1;ratioP1;P1;durP2;ratioP2;P2;SDS_P1;SDS_P2;PMS_P1;PMS_P2;Temp;Humidity;BMP_temperature;BMP_pressure;BME280_temperature;BME280_humidity;BME280_pressure;Samples;Min_cycle;Max_cycle;Signal;HPM_P1;HPM_P2
2022/08/27 00:01:45;;;;;;;9.03;4.70;;;;;;;20.07;79.58;99432.31;1773039;79;20978;-61
2022/08/27 00:04:12;;;;;;;8.23;4.70;;;;;;;20.04;79.41;99427.30;1769484;80;20948;-61
2022/08/27 00:06:39;;;;;;;9.23;4.70;;;;;;;20.03;79.42;99430.94;1773157;80;21011;-61
2022/08/27 00:09:05;;;;;;;13.30;4.90;;;;;;;20.01;79.33;99423.60;1763331;79;21058;-61
2022/08/27 00:11:33;;;;;;;9.25;5.17;;;;;;;20.01;79.27;99422.28;1773994;80;21061;-60
2022/08/27 00:14:01;;;;;;;10.03;4.95;;;;;;;19.99;79.17;99419.75;1766553;80;21311;-61
2022/08/27 00:16:28;;;;;;;11.65;4.67;;;;;;;19.98;79.07;99413.28;1768546;80;21526;-61
2022/08/27 00:18:55;;;;;;;8.55;4.25;;;;;;;19.98;78.98;99415.94;1772175;80;21119;-61
2022/08/27 00:21:23;;;;;;;10.60;4.83;;;;;;;19.97;78.98;99416.89;1765662;79;21148;-60
2022/08/27 00:23:50;;;;;;;7.78;4.37;;;;;;;19.99;78.89;99414.45;1773068;79;21080;-61
2022/08/27 00:26:17;;;;;;;6.85;4.70;;;;;;;20.00;78.71;99419.30;1770077;80;20996;-61
2022/08/27 00:28:44;;;;;;;;;;;;;;;20.00;78.56;99412.67;1772383;79;20911;-61
2022/08/27 00:31:11;;;;;;;17.60;4.95;;;;;;;20.00;78.52;99410.02;1765871;79;20145;-61
2022/08/27 00:33:38;;;;;;;11.22;4.85;;;;;;;19.98;78.40;99407.98;1772187;80;21120;-61
2022/08/27 00:36:05;;;;;;;11.00;4.20;;;;;;;19.97;78.37;99407.62;1774219;79;22122;-61
2022/08/27 00:38:32;;;;;;;10.38;4.60;;;;;;;19.94;78.43;99410.55;1772760;79;22241;-61
2022/08/27 00:41:00;;;;;;;11.75;4.83;;;;;;;19.95;78.30;99409.59;1767758;79;20921;-61
2022/08/27 00:43:30;;;;;;;12.75;4.60;;;;;;;19.97;78.24;99411.59;1770455;79;20983;-61
2022/08/27 00:46:06;;;;;;;6.92;4.12;;;;;;;19.98;78.12;99409.31;1773969;79;22333;-61
2022/08/27 00:48:35;;;;;;;9.65;4.92;;;;;;;19.95;77.97;99406.95;1737060;79;21041;-61
2022/08/27 00:51:04;;;;;;;10.35;4.67;;;;;;;19.93;77.90;99408.89;1767321;80;20988;-62
2022/08/27 00:53:33;;;;;;;7.08;4.67;;;;;;;19.85;77.89;99410.41;1744483;80;21039;-62
2022/08/27 00:56:14;;;;;;;21.42;5.47;;;;;;;19.81;77.87;99410.84;1769526;80;20990;-62
2022/08/27 00:58:46;;;;;;;7.50;4.72;;;;;;;19.78;77.86;99405.83;1768234;80;21109;-62
2022/08/27 01:01:18;;;;;;;10.45;4.62;;;;;;;19.75;77.74;99410.91;1766039;80;21131;-61
2022/08/27 01:03:48;;;;;;;8.83;4.70;;;;;;;19.70;77.79;99417.11;1740816;80;20972;-61
2022/08/27 01:06:18;;;;;;;8.05;4.83;;;;;;;19.72;77.83;99411.20;1771674;80;21588;-61
2022/08/27 01:08:50;;;;;;;11.53;5.25;;;;;;;19.71;77.72;99400.72;1768506;79;21064;-61
2022/08/27 01:11:17;;;;;;;14.07;5.20;;;;;;;19.72;77.76;99401.92;1768676;79;22205;-61
2022/08/27 01:13:43;;;;;;;;;;;;;;;19.74;77.76;99398.63;1768613;80;21004;-61
2022/08/27 01:16:14;;;;;;;7.45;4.28;;;;;;;19.79;77.62;99403.03;1768912;80;20176;-61
2022/08/27 01:18:41;;;;;;;8.73;4.85;;;;;;;19.80;77.63;99400.74;1774198;79;21433;-61
2022/08/27 01:21:31;;;;;;;9.98;4.92;;;;;;;19.83;77.60;99399.14;1768852;79;21067;-61
2022/08/27 01:24:26;;;;;;;7.60;4.92;;;;;;;19.87;77.39;99397.87;1769924;79;21589;-61
2022/08/27 01:26:54;;;;;;;10.28;4.90;;;;;;;19.87;77.27;99393.89;1769335;80;20989;-61
2022/08/27 01:29:21;;;;;;;18.20;6.03;;;;;;;19.85;77.13;99394.52;1764752;80;21068;-60
2022/08/27 01:31:47;;;;;;;11.18;5.83;;;;;;;19.83;77.10;99399.14;1762896;80;20988;-60
2022/08/27 01:34:14;;;;;;;9.55;4.87;;;;;;;19.78;77.04;99397.39;1755813;80;21100;-60
2022/08/27 01:36:56;;;;;;;12.78;4.83;;;;;;;19.70;77.17;99398.57;1831106;76;22766;-60
2022/08/27 01:39:22;;;;;;;9.08;6.03;;;;;;;19.55;77.19;99397.25;1805127;78;21637;-60
2022/08/27 01:41:50;;;;;;;12.37;5.65;;;;;;;19.45;77.26;99399.91;1807725;79;21436;-60
2022/08/27 01:44:16;;;;;;;;;;;;;;;19.36;77.31;99396.27;1804900;79;21525;-60
2022/08/27 01:46:43;;;;;;;8.73;4.70;;;;;;;19.32;77.45;99394.84;1804703;78;20556;-60
2022/08/27 01:49:10;;;;;;;9.58;4.80;;;;;;;19.31;77.39;99395.00;1799733;79;21091;-60
2022/08/27 01:51:36;;;;;;;11.88;5.47;;;;;;;19.30;77.50;99404.76;1803576;78;20981;-60
2022/08/27 01:54:03;;;;;;;9.40;5.28;;;;;;;19.32;77.39;99400.14;1806052;78;20981;-61
2022/08/27 01:56:29;;;;;;;11.80;5.22;;;;;;;19.33;77.39;99396.55;1807122;78;21142;-60
2022/08/27 01:58:56;;;;;;;8.50;5.17;;;;;;;19.35;77.37;99399.04;1804002;78;21772;-60
2022/08/27 02:01:23;;;;;;;10.23;5.45;;;;;;;19.32;77.38;99400.14;1809166;78;20962;-61
2022/08/27 02:03:49;;;;;;;6.40;5.10;;;;;;;19.29;77.39;99403.06;1800974;78;22501;-60
2022/08/27 02:06:17;;;;;;;10.60;6.05;;;;;;;19.24;77.37;99405.31;1803087;79;21378;-60
2022/08/27 02:08:44;;;;;;;10.18;5.45;;;;;;;19.13;77.35;99405.39;1808835;78;21041;-60
2022/08/27 02:11:11;;;;;;;7.80;5.10;;;;;;;19.03;77.49;99404.05;1805374;79;20995;-60
2022/08/27 02:13:38;;;;;;;8.13;5.53;;;;;;;18.99;77.59;99402.16;1806556;78;20938;-60
2022/08/27 02:16:04;;;;;;;10.98;5.15;;;;;;;18.92;77.69;99398.36;1804708;78;21609;-60
2022/08/27 02:18:31;;;;;;;9.10;5.42;;;;;;;18.88;77.84;99402.75;1809030;79;21438;-61
2022/08/27 02:20:58;;;;;;;7.33;5.47;;;;;;;18.85;77.88;99401.20;1811483;78;20940;-61
2022/08/27 02:23:25;;;;;;;11.25;5.30;;;;;;;18.85;77.94;99394.59;1801438;79;21122;-60
2022/08/27 02:25:52;;;;;;;10.18;5.35;;;;;;;18.88;77.89;99398.78;1810227;78;21481;-61
2022/08/27 02:28:19;;;;;;;9.68;5.20;;;;;;;18.89;77.86;99398.64;1799645;78;21096;-60
2022/08/27 02:30:46;;;;;;;9.53;5.28;;;;;;;18.86;77.99;99398.91;1801111;79;21572;-60
2022/08/27 02:33:13;;;;;;;11.22;5.45;;;;;;;18.86;78.05;99394.11;1805366;78;20950;-60
2022/08/27 02:35:42;;;;;;;;;;;;;;;18.86;78.02;99394.94;1807799;78;21031;-61
2022/08/27 02:38:11;;;;;;;10.85;5.33;;;;;;;18.85;78.10;99391.09;1812242;77;20117;-60
2022/08/27 02:40:38;;;;;;;7.30;5.10;;;;;;;18.84;78.13;99386.78;1812280;77;20971;-61
2022/08/27 02:43:05;;;;;;;8.25;5.33;;;;;;;18.83;78.16;99385.95;1814484;77;21125;-61
2022/08/27 02:45:32;;;;;;;9.75;4.78;;;;;;;18.82;78.13;99381.64;1811862;77;20978;-61
2022/08/27 02:47:59;;;;;;;11.30;5.30;;;;;;;18.79;78.03;99376.59;1805866;78;20974;-61
2022/08/27 02:50:26;;;;;;;10.55;5.30;;;;;;;18.76;78.11;99376.86;1810620;78;21030;-61
2022/08/27 02:52:52;;;;;;;7.12;4.70;;;;;;;18.73;78.12;99377.09;1803037;78;20992;-61
2022/08/27 02:55:21;;;;;;;9.68;5.15;;;;;;;18.68;78.17;99380.62;1802972;78;21274;-62
2022/08/27 02:57:48;;;;;;;11.78;4.83;;;;;;;18.64;78.11;99380.55;1809054;77;20887;-61
2022/08/27 03:00:21;;;;;;;8.55;5.22;;;;;;;18.58;78.15;99378.44;1773426;79;21018;-61
2022/08/27 03:02:49;;;;;;;10.95;5.78;;;;;;;18.49;78.17;99376.93;1805647;79;20995;-61
2022/08/27 03:05:18;;;;;;;10.23;5.28;;;;;;;18.41;78.19;99378.06;1810137;77;20933;-61
2022/08/27 03:07:45;;;;;;;12.78;5.03;;;;;;;18.37;78.33;99377.13;1805284;79;21119;-62
2022/08/27 03:10:13;;;;;;;;;;;;;;;18.31;78.33;99374.52;1807183;78;21008;-61
2022/08/27 03:12:41;;;;;;;9.93;5.60;;;;;;;18.23;78.48;99374.33;1806474;78;20146;-61
2022/08/27 03:15:13;;;;;;;12.18;5.83;;;;;;;18.15;78.50;99370.17;1807853;79;20907;-61
2022/08/27 03:20:26;;;;;;;9.03;5.00;;;;;;;18.07;78.74;99362.42;1739550;80;21279;-60
2022/08/27 03:22:54;;;;;;;15.13;5.25;;;;;;;18.09;78.82;99359.18;1764594;79;21064;-61
2022/08/27 03:25:21;;;;;;;8.13;5.35;;;;;;;18.07;78.83;99369.03;1768716;79;21062;-61
2022/08/27 03:27:48;;;;;;;8.00;5.40;;;;;;;18.05;78.82;99364.35;1765585;79;20939;-61
2022/08/27 03:30:19;;;;;;;12.30;5.87;;;;;;;17.99;78.86;99366.19;1775839;79;20981;-61
2022/08/27 03:32:46;;;;;;;6.22;5.17;;;;;;;17.95;78.89;99367.39;1774346;79;20998;-62
2022/08/27 03:35:14;;;;;;;7.05;5.20;;;;;;;17.91;79.05;99371.77;1772192;79;20994;-62
2022/08/27 03:37:41;;;;;;;8.03;5.70;;;;;;;17.90;79.16;99368.29;1776719;79;21001;-62
2022/08/27 03:40:08;;;;;;;7.15;5.70;;;;;;;17.90;79.23;99360.36;1768937;80;21556;-61
2022/08/27 03:42:36;;;;;;;8.05;4.97;;;;;;;17.93;79.34;99357.47;1777086;80;21009;-62
2022/08/27 03:45:05;;;;;;;15.05;5.50;;;;;;;18.00;79.37;99356.45;1772525;80;21954;-62
2022/08/27 03:47:33;;;;;;;7.72;5.37;;;;;;;18.06;79.38;99359.90;1754557;81;21560;-61
2022/08/27 03:50:00;;;;;;;7.33;5.10;;;;;;;18.08;79.32;99361.45;1807332;79;21539;-62
2022/08/27 03:52:28;;;;;;;11.83;5.45;;;;;;;18.05;79.27;99364.35;1797759;79;21008;-62
2022/08/27 03:54:54;;;;;;;10.95;5.72;;;;;;;18.00;79.26;99370.50;1807202;79;21009;-62
2022/08/27 03:57:21;;;;;;;12.28;5.53;;;;;;;17.95;79.36;99370.03;1800901;77;21908;-62
2022/08/27 03:59:48;;;;;;;12.03;6.12;;;;;;;17.93;79.53;99373.31;1802889;77;21011;-62
2022/08/27 04:02:15;;;;;;;10.63;5.60;;;;;;;17.99;79.75;99375.44;1806275;78;21541;-62
2022/08/27 04:04:41;;;;;;;10.58;5.42;;;;;;;18.14;79.91;99365.87;1805379;78;20986;-62
2022/08/27 04:07:09;;;;;;;13.08;5.28;;;;;;;18.35;79.79;99364.05;1807073;79;21597;-62
2022/08/27 04:09:36;;;;;;;;;;;;;;;18.56;79.76;99369.30;1804315;79;21089;-62
2022/08/27 04:12:03;;;;;;;15.30;5.45;;;;;;;18.83;79.84;99359.50;1809181;78;20780;-62
2022/08/27 04:14:30;;;;;;;9.95;5.20;;;;;;;19.12;79.87;99366.67;1808603;77;21016;-62
2022/08/27 04:16:57;;;;;;;8.65;5.67;;;;;;;19.57;79.79;99366.19;1812191;77;21549;-62
2022/08/27 04:19:26;;;;;;;9.43;5.60;;;;;;;20.01;79.55;99370.11;1807019;78;20972;-62
2022/08/27 04:21:53;;;;;;;8.65;4.83;;;;;;;20.44;79.20;99365.27;1803669;77;21272;-62
2022/08/27 04:24:20;;;;;;;15.28;5.65;;;;;;;20.84;78.95;99366.82;1812014;78;20986;-63
2022/08/27 04:26:46;;;;;;;8.40;5.85;;;;;;;21.24;78.87;99373.95;1805880;78;20953;-63
2022/08/27 04:29:13;;;;;;;13.18;5.47;;;;;;;21.75;78.85;99369.50;1800956;78;20983;-62
2022/08/27 04:31:40;;;;;;;8.03;5.42;;;;;;;22.25;78.34;99366.27;1801599;79;21539;-63
2022/08/27 04:34:06;;;;;;;9.75;5.53;;;;;;;22.81;78.13;99359.59;1807886;79;21563;-63
2022/08/27 04:36:33;;;;;;;12.37;5.47;;;;;;;23.21;77.45;99355.42;1812469;78;21560;-62
2022/08/27 04:39:00;;;;;;;12.45;6.70;;;;;;;23.58;76.86;99355.48;1781212;78;21072;-62
2022/08/27 04:41:27;;;;;;;10.93;5.45;;;;;;;23.83;75.92;99358.52;1786001;78;21124;-62
2022/08/27 04:43:57;;;;;;;13.83;6.28;;;;;;;24.12;75.54;99359.87;1813760;77;21118;-62
2022/08/27 04:46:31;;;;;;;13.22;6.05;;;;;;;24.43;75.36;99351.15;1815368;78;21196;-63
2022/08/27 04:49:01;;;;;;;9.35;5.45;;;;;;;24.79;75.01;99365.73;1809912;78;21001;-63
2022/08/27 04:51:29;;;;;;;14.15;5.90;;;;;;;25.18;74.41;99364.93;1808254;77;21017;-63
2022/08/27 04:53:56;;;;;;;13.75;5.40;;;;;;;25.48;74.12;99362.39;1775319;78;20987;-63
2022/08/27 04:56:24;;;;;;;11.20;5.28;;;;;;;25.90;73.27;99355.76;1810068;78;20932;-62
2022/08/27 04:58:51;;;;;;;8.13;5.03;;;;;;;26.24;72.69;99349.95;1813896;78;21471;-62
2022/08/27 05:01:22;;;;;;;12.30;5.60;;;;;;;26.58;72.16;99353.11;1813822;78;20999;-63
2022/08/27 05:03:50;;;;;;;12.18;5.35;;;;;;;26.81;71.22;99359.22;1814652;78;21041;-63
2022/08/27 05:06:17;;;;;;;9.95;5.58;;;;;;;27.04;70.95;99345.69;1812921;78;20943;-63
2022/08/27 05:08:45;;;;;;;8.13;5.47;;;;;;;27.29;70.13;99354.25;1810418;78;21068;-63
2022/08/27 05:11:14;;;;;;;14.87;6.50;;;;;;;27.60;69.71;99349.10;1813294;78;22125;-63
2022/08/27 05:13:42;;;;;;;14.13;7.30;;;;;;;27.92;69.39;99350.95;1804312;78;20983;-63
2022/08/27 05:16:14;;;;;;;10.15;5.87;;;;;;;28.17;68.88;99350.02;1809148;78;20968;-63
2022/08/27 05:18:41;;;;;;;11.12;5.25;;;;;;;28.45;68.59;99340.63;1810032;78;21610;-63
2022/08/27 05:21:09;;;;;;;10.95;5.08;;;;;;;28.66;67.49;99343.24;1805503;78;20966;-63
2022/08/27 05:23:35;;;;;;;13.60;5.87;;;;;;;28.73;67.04;99348.12;1811012;78;21286;-63
2022/08/27 05:26:02;;;;;;;17.37;6.20;;;;;;;28.83;66.60;99345.60;1810987;78;21009;-63
2022/08/27 05:28:29;;;;;;;13.38;5.62;;;;;;;28.97;65.62;99348.66;1803200;77;21043;-63
2022/08/27 05:31:04;;;;;;;11.93;5.05;;;;;;;29.20;65.24;99344.31;1810306;78;20986;-63
2022/08/27 05:33:32;;;;;;;9.83;4.80;;;;;;;29.39;65.07;99348.09;1805077;78;21007;-63
2022/08/27 05:38:24;;;;;;;13.32;5.25;;;;;;;29.80;63.83;99352.02;1830242;77;113633;-62
2022/08/27 05:41:04;;;;;;;10.58;4.90;;;;;;;30.07;63.71;99349.30;1759430;79;21169;-62
2022/08/27 05:43:31;;;;;;;10.53;4.60;;;;;;;30.43;63.15;99350.22;1784828;79;22163;-63
2022/08/27 05:45:58;;;;;;;17.25;4.70;;;;;;;30.88;62.68;99347.63;1786022;79;20985;-63
2022/08/27 05:48:25;;;;;;;9.40;4.25;;;;;;;31.26;62.34;99346.84;1783163;78;21492;-62
2022/08/27 05:50:52;;;;;;;9.88;4.03;;;;;;;31.37;61.07;99348.88;1779206;79;20988;-62
2022/08/27 05:53:19;;;;;;;14.93;5.00;;;;;;;31.35;60.53;99350.92;1787492;79;20949;-62
2022/08/27 05:55:46;;;;;;;12.82;4.65;;;;;;;31.43;60.23;99350.70;1784966;79;21105;-64
2022/08/27 06:03:35;;;;;;;11.97;4.70;;;;;;;31.16;57.90;99351.86;1781499;79;20987;-65
2022/08/27 06:06:09;;;;;;;7.42;4.45;;;;;;;31.02;57.34;99347.58;1789895;79;20977;-65
2022/08/27 06:08:38;;;;;;;10.87;4.60;;;;;;;30.90;56.42;99353.64;1787712;79;21170;-64
2022/08/27 06:11:06;;;;;;;10.35;4.70;;;;;;;30.77;56.38;99349.61;1783918;79;21660;-64
2022/08/27 06:13:34;;;;;;;8.40;4.53;;;;;;;30.86;56.37;99354.27;1785882;79;22230;-63
2022/08/27 06:16:05;;;;;;;8.20;4.50;;;;;;;31.05;55.89;99349.84;1782960;77;21585;-65
2022/08/27 06:18:33;;;;;;;9.28;4.65;;;;;;;31.15;55.38;99348.34;1779790;79;20962;-64
2022/08/27 06:21:00;;;;;;;11.30;4.15;;;;;;;31.19;54.86;99346.86;1785627;78;21702;-63
2022/08/27 06:23:27;;;;;;;16.20;4.30;;;;;;;31.15;54.40;99348.34;1782806;79;20955;-63
2022/08/27 06:25:56;;;;;;;7.53;4.20;;;;;;;31.21;54.07;99346.66;1783486;79;20980;-64
2022/08/27 06:28:31;;;;;;;9.10;4.12;;;;;;;31.22;53.63;99345.59;1782827;79;21010;-64
2022/08/27 06:31:21;;;;;;;12.18;4.50;;;;;;;31.27;53.76;99351.17;1780771;79;20949;-64
2022/08/27 06:33:51;;;;;;;12.65;4.55;;;;;;;31.40;53.22;99349.79;1788229;79;21064;-64
2022/08/27 06:36:22;;;;;;;14.43;4.80;;;;;;;31.44;53.01;99351.52;1769706;79;22181;-64
2022/08/27 06:38:50;;;;;;;9.80;5.15;;;;;;;31.58;52.71;99359.01;1730515;81;21059;-64
2022/08/27 06:41:22;;;;;;;8.60;4.33;;;;;;;31.51;52.01;99354.16;1709628;82;21546;-64
2022/08/27 06:43:49;;;;;;;13.60;4.50;;;;;;;31.57;51.95;99356.84;1705520;82;21081;-64
2022/08/27 06:46:20;;;;;;;9.08;4.78;;;;;;;31.70;51.44;99347.80;1725847;81;21074;-63
2022/08/27 06:48:49;;;;;;;7.87;4.20;;;;;;;31.66;51.13;99354.70;1733404;81;21004;-64
2022/08/27 06:51:20;;;;;;;9.15;4.30;;;;;;;31.69;51.08;99350.21;1733151;81;21000;-63
2022/08/27 06:53:47;;;;;;;8.35;4.15;;;;;;;31.82;50.67;99350.65;1705630;83;21067;-64
2022/08/27 06:56:16;;;;;;;15.43;4.42;;;;;;;32.02;50.74;99349.16;1683760;83;21562;-63
2022/08/27 06:58:43;;;;;;;10.13;3.90;;;;;;;32.28;50.69;99352.95;1706650;82;21187;-63
2022/08/27 07:01:24;;;;;;;8.40;4.10;;;;;;;32.49;50.22;99353.59;1682820;84;21118;-63
2022/08/27 07:03:55;;;;;;;8.68;4.37;;;;;;;32.60;49.92;99352.87;1707672;83;20963;-64
2022/08/27 07:06:22;;;;;;;11.28;4.35;;;;;;;32.64;50.01;99343.25;1680753;83;21523;-64
2022/08/27 07:08:49;;;;;;;9.13;4.35;;;;;;;32.83;49.73;99354.08;1680922;84;21083;-64
2022/08/27 07:11:16;;;;;;;14.38;4.60;;;;;;;32.77;48.99;99358.51;1712872;82;21204;-64
2022/08/27 07:13:46;;;;;;;8.80;4.08;;;;;;;32.65;48.81;99358.41;1732125;81;20988;-64
2022/08/27 07:16:17;;;;;;;9.85;4.08;;;;;;;32.55;48.49;99358.13;1735551;81;21082;-64
2022/08/27 07:18:45;;;;;;;8.45;4.67;;;;;;;32.38;48.46;99362.41;1724114;81;22310;-64
2022/08/27 07:21:12;;;;;;;10.75;4.80;;;;;;;32.17;48.25;99356.38;1731598;81;20922;-63
2022/08/27 07:23:39;;;;;;;12.00;5.15;;;;;;;31.97;48.03;99358.44;1710036;82;21044;-63
2022/08/27 07:26:09;;;;;;;8.55;4.50;;;;;;;31.65;47.60;99363.85;1711329;82;21652;-63
2022/08/27 07:28:38;;;;;;;10.82;5.03;;;;;;;31.30;47.53;99352.61;1681624;83;21046;-63
2022/08/27 07:31:07;;;;;;;8.33;4.53;;;;;;;30.98;47.53;99364.18;1733458;81;21035;-63
2022/08/27 07:33:36;;;;;;;7.00;4.30;;;;;;;30.81;47.53;99357.62;1733728;81;21059;-63
2022/08/27 07:36:05;;;;;;;17.23;4.47;;;;;;;30.72;47.50;99358.84;1708318;83;21177;-63
2022/08/27 07:38:40;;;;;;;10.32;5.08;;;;;;;30.60;47.27;99357.85;1710761;80;21093;-63
2022/08/27 07:41:11;;;;;;;7.37;4.60;;;;;;;30.28;46.85;99357.72;1710886;83;21022;-63
2022/08/27 07:46:25;;;;;;;5.00;3.72;;;;;;;29.97;47.03;99358.30;1698735;82;21190;-62
2022/08/27 07:48:54;;;;;;;10.10;4.75;;;;;;;29.82;46.96;99365.24;1697090;83;21307;-63
2022/08/27 07:51:23;;;;;;;10.60;4.28;;;;;;;29.70;46.89;99360.17;1698548;82;21004;-63
2022/08/27 07:53:52;;;;;;;13.28;5.08;;;;;;;29.71;46.99;99362.64;1696638;83;21064;-63
2022/08/27 07:56:19;;;;;;;7.60;4.28;;;;;;;29.72;46.99;99362.15;1693006;83;21051;-63
2022/08/27 07:58:47;;;;;;;7.70;4.45;;;;;;;29.73;47.00;99354.38;1695541;82;21080;-63
2022/08/27 08:01:14;;;;;;;17.85;4.90;;;;;;;29.66;46.53;99355.20;1698893;83;21140;-64
2022/08/27 08:03:41;;;;;;;14.25;4.65;;;;;;;29.61;46.99;99349.58;1700305;82;21009;-61
2022/08/27 08:06:12;;;;;;;5.55;4.15;;;;;;;29.61;46.68;99352.27;1702329;83;21076;-62
2022/08/27 08:08:40;;;;;;;12.53;4.42;;;;;;;29.58;46.66;99355.37;1703352;82;21105;-63
2022/08/27 08:11:10;;;;;;;11.18;4.28;;;;;;;29.43;46.50;99354.70;1702027;82;21594;-63
2022/08/27 08:13:37;;;;;;;10.08;4.35;;;;;;;29.45;46.57;99352.65;1701269;83;21067;-63
2022/08/27 08:16:06;;;;;;;7.47;4.42;;;;;;;29.42;46.44;99356.57;1700699;82;21059;-63
2022/08/27 08:18:34;;;;;;;10.95;4.42;;;;;;;29.40;46.40;99353.77;1701649;82;21032;-63
2022/08/27 08:21:05;;;;;;;9.33;4.95;;;;;;;29.43;46.27;99354.70;1702328;82;20961;-63
2022/08/27 08:23:32;;;;;;;10.00;4.70;;;;;;;29.49;46.42;99353.06;1701263;82;21846;-63
2022/08/27 08:26:01;;;;;;;9.45;4.53;;;;;;;29.55;46.56;99363.85;1711465;82;21899;-63
2022/08/27 08:28:29;;;;;;;6.40;3.90;;;;;;;29.62;46.51;99360.64;1702687;83;21610;-64
2022/08/27 08:30:58;;;;;;;7.35;4.45;;;;;;;29.60;45.95;99360.00;1707824;82;21112;-63
2022/08/27 08:33:26;;;;;;;9.90;4.45;;;;;;;29.58;46.46;99360.75;1702128;82;21071;-63
2022/08/27 08:36:06;;;;;;;6.97;4.33;;;;;;;29.74;46.47;99358.72;1706595;82;21004;-63
2022/08/27 08:38:34;;;;;;;8.33;3.92;;;;;;;29.88;46.02;99354.99;1698441;83;23731;-63
2022/08/27 08:41:03;;;;;;;7.30;4.25;;;;;;;29.72;45.74;99356.77;1702389;83;20949;-63
2022/08/27 08:43:36;;;;;;;13.78;4.37;;;;;;;29.69;45.90;99355.81;1703121;82;20957;-62
2022/08/27 08:46:19;;;;;;;8.05;4.58;;;;;;;29.66;45.32;99356.55;1702809;82;21100;-62
2022/08/27 08:48:49;;;;;;;12.05;4.40;;;;;;;29.57;45.50;99356.38;1700032;83;21118;-62
2022/08/27 08:51:30;;;;;;;8.00;5.10;;;;;;;29.51;45.42;99351.83;1701461;82;21155;-62
2022/08/27 08:54:04;;;;;;;14.03;4.45;;;;;;;29.57;45.46;99353.69;1700310;82;21562;-63
2022/08/27 08:56:48;;;;;;;9.85;4.45;;;;;;;29.64;45.44;99357.27;1718652;82;21137;-62
2022/08/27 08:59:37;;;;;;;8.40;4.30;;;;;;;29.77;45.48;99356.95;1675081;74;176916;-63
2022/08/27 09:02:08;;;;;;;10.48;3.92;;;;;;;29.82;45.21;99355.83;1704114;83;21823;-62
2022/08/27 09:04:36;;;;;;;9.13;4.45;;;;;;;29.96;45.22;99349.41;1703013;84;22196;-62
2022/08/27 09:07:35;;;;;;;10.75;4.55;;;;;;;30.10;45.09;99351.05;1703027;83;21092;-63
2022/08/27 09:10:14;;;;;;;12.05;4.03;;;;;;;30.11;45.05;99350.04;1695089;83;21939;-61
2022/08/27 09:12:41;;;;;;;7.33;4.05;;;;;;;30.20;44.84;99352.52;1691291;84;21696;-62
2022/08/27 09:15:16;;;;;;;6.20;3.72;;;;;;;30.24;44.95;99353.25;1696897;83;20977;-62
2022/08/27 09:17:44;;;;;;;9.50;4.37;;;;;;;30.25;44.60;99351.38;1694129;84;22233;-62
2022/08/27 09:20:13;;;;;;;10.75;4.40;;;;;;;30.25;44.62;99352.72;1692878;84;21036;-63
2022/08/27 09:23:08;;;;;;;16.37;4.60;;;;;;;30.26;44.45;99356.56;1692505;84;21125;-63
2022/08/27 09:25:39;;;;;;;7.80;4.08;;;;;;;30.29;44.50;99355.33;1698351;84;21021;-62
2022/08/27 09:29:14;;;;;;;10.72;4.47;;;;;;;30.23;43.79;99352.13;1698428;84;21637;-64
2022/08/27 09:30:43;;;;;;;8.33;4.83;;;;;;;30.20;44.16;99356.03;1699749;83;21083;-64
2022/08/27 09:33:10;;;;;;;8.83;4.47;;;;;;;30.32;43.91;99358.94;1698627;84;22360;-64
2022/08/27 09:35:46;;;;;;;13.35;4.40;;;;;;;30.38;43.74;99355.41;1695490;84;21123;-64
2022/08/27 09:38:30;;;;;;;10.88;3.95;;;;;;;30.40;43.66;99356.03;1693517;84;20962;-65
2022/08/27 09:41:11;;;;;;;9.00;3.72;;;;;;;30.44;43.52;99357.25;1698625;84;20950;-62
2022/08/27 09:43:42;;;;;;;11.40;4.55;;;;;;;30.44;43.49;99359.95;1698936;84;21021;-63
2022/08/27 09:46:22;;;;;;;9.30;4.40;;;;;;;30.41;43.40;99356.85;1698767;84;20996;-64
2022/08/27 09:48:49;;;;;;;10.32;4.42;;;;;;;30.43;43.54;99352.91;1700033;84;21581;-65
2022/08/27 09:51:26;;;;;;;10.95;4.70;;;;;;;30.48;43.04;99347.73;1699786;84;21003;-63
2022/08/27 09:54:02;;;;;;;10.00;4.40;;;;;;;30.35;42.89;99354.48;1700171;84;20969;-61
2022/08/27 09:56:34;;;;;;;12.23;4.50;;;;;;;30.36;42.91;99354.81;1698210;83;21929;-64
2022/08/27 09:59:23;;;;;;;9.05;4.17;;;;;;;30.30;42.81;99331.38;1699182;84;20973;-63
2022/08/27 10:01:59;;;;;;;7.17;5.05;;;;;;;30.48;42.41;99350.42;1694544;84;21109;-65
2022/08/27 10:04:43;;;;;;;11.22;4.67;;;;;;;30.43;42.42;99347.53;1690798;83;21017;-64
2022/08/27 10:07:52;;;;;;;9.45;4.15;;;;;;;30.48;42.02;99350.42;1694235;83;21018;-63
2022/08/27 10:10:37;;;;;;;14.78;5.05;;;;;;;30.37;41.52;99345.68;1692428;83;21075;-63
2022/08/27 10:13:27;;;;;;;9.15;4.17;;;;;;;30.16;40.91;99345.87;1693156;83;21024;-64
2022/08/27 10:16:20;;;;;;;7.58;4.08;;;;;;;30.14;41.16;99347.94;1695991;84;20969;-64
2022/08/27 10:21:50;;;;;;;11.57;4.60;;;;;;;30.26;41.16;99340.94;1862170;75;22576;-63
2022/08/27 10:24:47;;;;;;;8.83;4.90;;;;;;;30.27;41.02;99339.89;1839828;76;20950;-65
2022/08/27 10:27:25;;;;;;;7.30;4.62;;;;;;;30.28;40.67;99345.60;1761712;78;21155;-63
2022/08/27 10:30:14;;;;;;;10.72;4.70;;;;;;;30.21;40.68;99338.00;1759017;78;21016;-63
2022/08/27 10:33:06;;;;;;;9.48;4.60;;;;;;;30.33;40.20;99337.70;1765768;78;21088;-63
2022/08/27 10:35:56;;;;;;;10.90;4.85;;;;;;;30.26;40.65;99334.20;1724792;80;21591;-64
2022/08/27 10:38:40;;;;;;;10.48;4.72;;;;;;;30.29;40.58;99333.78;1737773;80;21582;-63
2022/08/27 10:44:37;;;;;;;7.95;4.65;;;;;;;30.16;40.10;99332.41;1751456;80;21107;-63
2022/08/27 10:47:18;;;;;;;7.75;4.50;;;;;;;30.08;39.71;99331.61;1757645;80;21592;-64
2022/08/27 10:50:08;;;;;;;11.22;5.08;;;;;;;30.01;40.13;99332.64;1766940;78;21033;-63
2022/08/27 10:52:48;;;;;;;5.95;4.60;;;;;;;30.07;40.30;99329.94;1761024;78;21092;-63
2022/08/27 10:55:35;;;;;;;13.32;4.90;;;;;;;30.11;39.62;99325.81;1761222;78;21893;-63
2022/08/27 10:58:34;;;;;;;10.93;5.17;;;;;;;30.10;40.55;99334.90;1767235;78;21060;-64
2022/08/27 11:01:21;;;;;;;9.00;4.45;;;;;;;30.14;40.27;99338.02;1724349;82;21077;-62
2022/08/27 11:04:10;;;;;;;10.00;4.87;;;;;;;30.11;40.16;99335.75;1709532;82;21508;-64
2022/08/27 11:06:47;;;;;;;9.13;5.47;;;;;;;30.15;40.37;99330.77;1697125;83;21010;-63
2022/08/27 11:09:21;;;;;;;9.73;4.85;;;;;;;30.17;40.33;99330.05;1683865;82;21124;-63
2022/08/27 11:11:55;;;;;;;9.48;4.70;;;;;;;30.08;39.62;99332.95;1683256;84;22010;-63
2022/08/27 11:14:30;;;;;;;11.20;4.50;;;;;;;30.01;39.48;99340.72;1687648;83;21001;-63
2022/08/27 11:17:15;;;;;;;7.80;4.80;;;;;;;29.97;39.73;99340.31;1657677;85;22382;-64
2022/08/27 11:19:56;;;;;;;15.05;5.05;;;;;;;30.02;39.74;99336.45;1665564;85;22223;-64
2022/08/27 11:22:28;;;;;;;8.08;4.72;;;;;;;30.03;39.49;99326.02;1660152;84;22237;-63
2022/08/27 11:27:53;;;;;;;13.23;5.00;;;;;;;29.95;39.22;99323.54;1858782;75;22798;-62
2022/08/27 11:30:46;;;;;;;8.93;4.87;;;;;;;29.94;39.42;99324.59;1819598;78;20960;-61
2022/08/27 11:33:27;;;;;;;6.17;4.75;;;;;;;29.96;39.45;99327.88;1819533;78;21925;-63
2022/08/27 11:36:18;;;;;;;5.87;4.45;;;;;;;30.01;39.48;99329.95;1821044;77;20928;-63
2022/08/27 11:39:05;;;;;;;8.78;5.17;;;;;;;29.92;39.22;99329.86;1825391;77;21631;-63
2022/08/27 11:41:58;;;;;;;6.33;4.45;;;;;;;29.81;39.11;99329.44;1745497;80;21013;-63
2022/08/27 11:44:27;;;;;;;7.95;4.45;;;;;;;29.83;38.80;99325.20;1756811;80;21628;-64
2022/08/27 11:47:13;;;;;;;6.60;4.72;;;;;;;29.92;38.77;99317.75;1768787;80;21078;-63
2022/08/27 11:50:00;;;;;;;7.33;4.58;;;;;;;29.84;38.65;99324.98;1750317;80;45802;-64
2022/08/27 11:52:38;;;;;;;8.65;5.12;;;;;;;29.84;39.02;99316.09;1749692;80;21109;-64
2022/08/27 11:55:35;;;;;;;6.17;4.45;;;;;;;29.91;38.97;99318.77;1751144;79;21026;-64
2022/08/27 11:58:21;;;;;;;7.37;4.33;;;;;;;30.02;38.94;99313.58;1742378;80;21580;-63
2022/08/27 12:00:48;;;;;;;;;;;;;;;30.05;39.06;99319.92;1756046;80;21106;-63
2022/08/27 12:03:33;;;;;;;46.53;26.42;;;;;;;30.08;39.08;99320.84;1749817;80;20184;-63
2022/08/27 12:06:21;;;;;;;11.78;5.80;;;;;;;30.08;39.42;99316.80;1750249;81;21032;-64
2022/08/27 12:08:48;;;;;;;7.17;4.62;;;;;;;30.20;39.35;99314.83;1754618;80;21073;-64
2022/08/27 12:11:39;;;;;;;6.28;4.85;;;;;;;30.09;38.73;99313.06;1751232;81;21070;-64
2022/08/27 12:14:14;;;;;;;7.80;4.87;;;;;;;30.00;39.26;99314.33;1753627;81;21511;-64
2022/08/27 12:17:29;;;;;;;17.62;5.67;;;;;;;30.01;39.37;99310.59;1750094;80;20973;-66